Time,TemperatureF,DewpointF,PressureIn,WindDirection,WindDirectionDegrees,WindSpeedMPH,WindSpeedGustMPH,Humidity,HourlyPrecipIn,Conditions,Clouds,dailyrainin,SoftwareType,DateUTC
2013-08-22 00:07:00,77.9,76.7,29.95,NW,315,0.0,-999.0,96,-99.99,,,0.00,Acu-Link.com,2013-08-22 04:07:00,
2013-08-22 00:23:00,77.9,76.7,29.95,SW,225,0.0,-999.0,96,-99.99,,,0.00,Acu-Link.com,2013-08-22 04:23:00,
2013-08-22 00:38:00,77.9,76.7,29.95,WSW,247,0.0,-999.0,96,-99.99,,,0.00,Acu-Link.com,2013-08-22 04:38:00,
2013-08-22 00:53:00,78.1,76.8,29.95,NNW,337,0.0,-999.0,96,-99.99,,,0.00,Acu-Link.com,2013-08-22 04:53:00,
2013-08-22 01:08:00,78.1,76.8,29.95,West,270,0.0,-999.0,96,-99.99,,,0.00,Acu-Link.com,2013-08-22 05:08:00,
2013-08-22 01:24:00,78.1,76.8,29.95,SE,135,0.0,-999.0,96,-99.99,,,0.00,Acu-Link.com,2013-08-22 05:24:00,
2013-08-22 01:39:00,78.1,76.8,29.94,WNW,292,0.0,-999.0,96,-99.99,,,0.00,Acu-Link.com,2013-08-22 05:39:00,
2013-08-22 01:54:00,78.1,76.8,29.94,East,90,0.0,-999.0,96,-99.99,,,0.00,Acu-Link.com,2013-08-22 05:54:00,
2013-08-22 02:10:00,78.1,76.8,29.94,West,270,0.0,-999.0,96,-99.99,,,0.00,Acu-Link.com,2013-08-22 06:10:00,
2013-08-22 02:25:00,78.1,76.8,29.93,WNW,292,0.0,-999.0,96,-99.99,,,0.00,Acu-Link.com,2013-08-22 06:25:00,
2013-08-22 02:40:00,78.1,76.8,29.93,WNW,292,0.0,-999.0,96,-99.99,,,0.00,Acu-Link.com,2013-08-22 06:40:00,
2013-08-22 02:55:00,78.1,76.8,29.93,WNW,292,0.0,-999.0,96,-99.99,,,0.00,Acu-Link.com,2013-08-22 06:55:00,
2013-08-22 03:11:00,77.9,76.7,29.93,South,180,0.0,-999.0,96,-99.99,,,0.00,Acu-Link.com,2013-08-22 07:11:00,
2013-08-22 03:26:00,77.9,76.7,29.92,NNW,337,0.0,-999.0,96,-99.99,,,0.00,Acu-Link.com,2013-08-22 07:26:00,
2013-08-22 03:41:00,77.7,76.5,29.91,NNW,337,0.0,-999.0,96,-99.99,,,0.00,Acu-Link.com,2013-08-22 07:41:00,
2013-08-22 03:57:00,77.7,76.5,29.91,NW,315,0.0,-999.0,96,-99.99,,,0.00,Acu-Link.com,2013-08-22 07:57:00,
2013-08-22 04:12:00,77.5,76.3,29.91,NW,315,0.0,-999.0,96,-99.99,,,0.00,Acu-Link.com,2013-08-22 08:12:00,
2013-08-22 04:28:00,77.5,76.3,29.91,SSE,157,0.0,-999.0,96,-99.99,,,0.00,Acu-Link.com,2013-08-22 08:28:00,
2013-08-22 04:43:00,77.5,76.3,29.92,North,0,0.0,-999.0,96,-99.99,,,0.00,Acu-Link.com,2013-08-22 08:43:00,
2013-08-22 04:58:00,77.4,76.1,29.91,NW,315,0.0,-999.0,96,-99.99,,,0.00,Acu-Link.com,2013-08-22 08:58:00,
2013-08-22 05:13:00,77.2,76.3,29.90,WNW,292,0.0,-999.0,97,-99.99,,,0.00,Acu-Link.com,2013-08-22 09:13:00,
2013-08-22 05:28:00,77.0,76.1,29.91,WNW,292,0.0,-999.0,97,-99.99,,,0.00,Acu-Link.com,2013-08-22 09:28:00,
2013-08-22 05:43:00,76.8,75.9,29.91,WNW,292,0.0,-999.0,97,-99.99,,,0.00,Acu-Link.com,2013-08-22 09:43:00,
2013-08-22 05:59:00,76.6,75.7,29.91,WNW,292,0.0,-999.0,97,-99.99,,,0.00,Acu-Link.com,2013-08-22 09:59:00,
2013-08-22 06:14:00,76.6,75.7,29.92,East,90,3.1,-999.0,97,-99.99,,,0.00,Acu-Link.com,2013-08-22 10:14:00,
2013-08-22 06:29:00,76.5,74.0,29.92,ESE,112,2.7,-999.0,92,-99.99,,,0.00,Acu-Link.com,2013-08-22 10:29:00,
2013-08-22 06:44:00,76.1,73.3,29.92,NW,315,0.0,-999.0,91,-99.99,,,0.00,Acu-Link.com,2013-08-22 10:44:00,
2013-08-22 08:35:00,77.9,75.7,29.94,SSE,157,1.1,-999.0,93,-99.99,,,0.00,Acu-Link.com,2013-08-22 12:35:00,
2013-08-22 08:50:00,82.9,78.0,29.93,ESE,112,0.0,-999.0,85,-99.99,,,0.00,Acu-Link.com,2013-08-22 12:50:00,
2013-08-22 09:05:00,85.1,79.0,29.94,NNE,22,0.0,-999.0,82,-99.99,,,0.00,Acu-Link.com,2013-08-22 13:05:00,
2013-08-22 09:21:00,85.5,79.3,29.95,West,270,0.0,-999.0,82,-99.99,,,0.00,Acu-Link.com,2013-08-22 13:21:00,
2013-08-22 09:36:00,84.2,78.8,29.96,NE,45,1.1,-999.0,84,-99.99,,,0.00,Acu-Link.com,2013-08-22 13:36:00,
2013-08-22 09:51:00,83.3,78.7,29.97,NW,315,0.0,-999.0,86,-99.99,,,0.00,Acu-Link.com,2013-08-22 13:51:00,
2013-08-22 10:06:00,82.8,77.8,29.95,NNW,337,0.0,-999.0,85,-99.99,,,0.00,Acu-Link.com,2013-08-22 14:06:00,
2013-08-22 10:22:00,81.7,78.1,29.95,SW,225,0.0,-999.0,89,-99.99,,,0.00,Acu-Link.com,2013-08-22 14:22:00,
2013-08-22 10:37:00,80.1,77.5,29.96,WNW,292,1.6,-999.0,92,-99.99,,,0.00,Acu-Link.com,2013-08-22 14:37:00,
2013-08-22 10:52:00,79.2,77.0,29.95,West,270,1.1,-999.0,93,-99.99,,,0.00,Acu-Link.com,2013-08-22 14:52:00,
2013-08-22 11:07:00,75.7,73.9,29.96,West,270,3.1,-999.0,94,-99.99,,,0.30,Acu-Link.com,2013-08-22 15:07:00,
2013-08-22 11:22:00,74.7,73.4,29.96,West,270,1.1,-999.0,96,-99.99,,,1.60,Acu-Link.com,2013-08-22 15:22:00,
2013-08-22 11:38:00,74.5,73.3,29.96,ENE,67,0.0,-999.0,96,-99.99,,,2.00,Acu-Link.com,2013-08-22 15:38:00,
2013-08-22 11:53:00,74.3,73.4,29.97,NW,315,0.0,-999.0,97,-99.99,,,2.28,Acu-Link.com,2013-08-22 15:53:00,
2013-08-22 12:08:00,73.6,73.0,29.99,ESE,112,2.2,-999.0,98,-99.99,,,2.32,Acu-Link.com,2013-08-22 16:08:00,
2013-08-22 12:24:00,72.7,72.1,30.01,North,0,2.7,-999.0,98,-99.99,,,2.53,Acu-Link.com,2013-08-22 16:24:00,
2013-08-22 12:39:00,72.3,71.7,29.99,SSE,157,4.3,-999.0,98,-99.99,,,3.20,Acu-Link.com,2013-08-22 16:39:00,
2013-08-22 12:54:00,72.1,71.5,29.97,SSW,202,1.6,-999.0,98,-99.99,,,3.46,Acu-Link.com,2013-08-22 16:54:00,
2013-08-22 13:09:00,72.1,71.5,29.98,NE,45,2.2,-999.0,98,-99.99,,,3.48,Acu-Link.com,2013-08-22 17:09:00,
2013-08-22 13:24:00,72.0,71.4,29.96,NE,45,1.1,-999.0,98,-99.99,,,3.49,Acu-Link.com,2013-08-22 17:24:00,
2013-08-22 13:40:00,72.0,71.4,29.93,ESE,112,0.0,-999.0,98,-99.99,,,3.49,Acu-Link.com,2013-08-22 17:40:00,
2013-08-22 13:55:00,72.0,71.7,29.93,ESE,112,2.2,-999.0,99,-99.99,,,3.49,Acu-Link.com,2013-08-22 17:55:00,
2013-08-22 14:10:00,72.1,71.8,29.94,SW,225,0.0,-999.0,99,-99.99,,,3.50,Acu-Link.com,2013-08-22 18:10:00,
2013-08-22 14:25:00,72.1,71.8,29.94,SE,135,2.7,-999.0,99,-99.99,,,3.50,Acu-Link.com,2013-08-22 18:25:00,
2013-08-22 14:40:00,72.5,71.9,29.94,SSE,157,1.6,-999.0,98,-99.99,,,3.50,Acu-Link.com,2013-08-22 18:40:00,
2013-08-22 14:55:00,72.7,71.8,29.94,SSE,157,5.8,-999.0,97,-99.99,,,3.50,Acu-Link.com,2013-08-22 18:55:00,
2013-08-22 15:10:00,73.0,72.1,29.94,NE,45,1.1,-999.0,97,-99.99,,,3.50,Acu-Link.com,2013-08-22 19:10:00,
2013-08-22 15:26:00,73.8,73.2,29.94,SE,135,0.0,-999.0,98,-99.99,,,3.50,Acu-Link.com,2013-08-22 19:26:00,
2013-08-22 15:41:00,74.7,74.1,29.93,ESE,112,0.0,-999.0,98,-99.99,,,3.50,Acu-Link.com,2013-08-22 19:41:00,
2013-08-22 15:56:00,74.8,73.3,29.92,SE,135,2.2,-999.0,95,-99.99,,,3.50,Acu-Link.com,2013-08-22 19:56:00,
2013-08-22 16:12:00,75.2,73.3,29.91,SE,135,0.0,-999.0,94,-99.99,,,3.50,Acu-Link.com,2013-08-22 20:12:00,
2013-08-22 16:27:00,76.1,74.9,29.91,NNW,337,0.0,-999.0,96,-99.99,,,3.50,Acu-Link.com,2013-08-22 20:27:00,
2013-08-22 16:42:00,77.0,75.8,29.91,NW,315,0.0,-999.0,96,-99.99,,,3.50,Acu-Link.com,2013-08-22 20:42:00,
2013-08-22 16:57:00,77.5,75.7,29.91,ENE,67,0.0,-999.0,94,-99.99,,,3.50,Acu-Link.com,2013-08-22 20:57:00,
2013-08-22 17:12:00,78.3,76.1,29.90,WNW,292,0.0,-999.0,93,-99.99,,,3.50,Acu-Link.com,2013-08-22 21:12:00,
2013-08-22 17:28:00,79.5,76.3,29.88,NE,45,0.0,-999.0,90,-99.99,,,3.50,Acu-Link.com,2013-08-22 21:28:00,
2013-08-22 17:43:00,79.9,76.7,29.87,NNW,337,0.0,-999.0,90,-99.99,,,3.50,Acu-Link.com,2013-08-22 21:43:00,
2013-08-22 17:58:00,79.2,76.0,29.87,NNW,337,0.0,-999.0,90,-99.99,,,3.50,Acu-Link.com,2013-08-22 21:58:00,
2013-08-22 18:13:00,78.8,75.9,29.86,ESE,112,0.0,-999.0,91,-99.99,,,3.50,Acu-Link.com,2013-08-22 22:13:00,
2013-08-22 18:29:00,78.3,75.4,29.87,ESE,112,0.0,-999.0,91,-99.99,,,3.50,Acu-Link.com,2013-08-22 22:29:00,
2013-08-22 18:44:00,77.7,74.9,29.87,SW,225,0.0,-999.0,91,-99.99,,,3.50,Acu-Link.com,2013-08-22 22:44:00,
2013-08-22 18:59:00,77.4,75.2,29.87,ESE,112,0.0,-999.0,93,-99.99,,,3.50,Acu-Link.com,2013-08-22 22:59:00,
2013-08-22 19:15:00,77.2,75.0,29.87,ESE,112,0.0,-999.0,93,-99.99,,,3.50,Acu-Link.com,2013-08-22 23:15:00,
2013-08-22 19:30:00,76.8,74.6,29.87,ESE,112,0.0,-999.0,93,-99.99,,,3.50,Acu-Link.com,2013-08-22 23:30:00,
2013-08-22 19:45:00,76.5,74.6,29.87,ESE,112,0.0,-999.0,94,-99.99,,,3.50,Acu-Link.com,2013-08-22 23:45:00,
2013-08-22 20:00:00,76.1,74.2,29.87,ESE,112,0.0,-999.0,94,-99.99,,,3.50,Acu-Link.com,2013-08-23 00:00:00,
2013-08-22 20:16:00,75.7,74.2,29.87,ESE,112,0.0,-999.0,95,-99.99,,,3.50,Acu-Link.com,2013-08-23 00:16:00,
2013-08-22 20:31:00,75.4,74.2,29.87,ESE,112,0.0,-999.0,96,-99.99,,,3.50,Acu-Link.com,2013-08-23 00:31:00,
2013-08-22 20:46:00,75.2,74.0,29.87,ESE,112,0.0,-999.0,96,-99.99,,,3.50,Acu-Link.com,2013-08-23 00:46:00,
2013-08-22 21:01:00,75.0,73.8,29.87,ESE,112,0.0,-999.0,96,-99.99,,,3.50,Acu-Link.com,2013-08-23 01:01:00,
2013-08-22 21:17:00,74.8,73.6,29.88,ESE,112,0.0,-999.0,96,-99.99,,,3.50,Acu-Link.com,2013-08-23 01:17:00,
2013-08-22 21:32:00,74.7,73.7,29.87,ESE,112,0.0,-999.0,97,-99.99,,,3.50,Acu-Link.com,2013-08-23 01:32:00,
2013-08-22 21:47:00,74.7,73.7,29.87,ESE,112,0.0,-999.0,97,-99.99,,,3.50,Acu-Link.com,2013-08-23 01:47:00,
2013-08-22 22:02:00,74.5,73.6,29.88,ESE,112,0.0,-999.0,97,-99.99,,,3.50,Acu-Link.com,2013-08-23 02:02:00,
2013-08-22 22:18:00,74.3,73.4,29.88,ESE,112,0.0,-999.0,97,-99.99,,,3.50,Acu-Link.com,2013-08-23 02:18:00,
2013-08-22 22:33:00,74.3,73.4,29.89,ESE,112,0.0,-999.0,97,-99.99,,,3.50,Acu-Link.com,2013-08-23 02:33:00,
2013-08-22 22:48:00,74.1,73.2,29.89,ESE,112,0.0,-999.0,97,-99.99,,,3.50,Acu-Link.com,2013-08-23 02:48:00,
2013-08-22 23:04:00,74.1,73.2,29.89,ESE,112,0.0,-999.0,97,-99.99,,,3.50,Acu-Link.com,2013-08-23 03:04:00,
2013-08-22 23:19:00,74.1,73.2,29.89,ESE,112,0.0,-999.0,97,-99.99,,,3.50,Acu-Link.com,2013-08-23 03:19:00,
2013-08-22 23:34:00,74.1,73.2,29.90,ESE,112,0.0,-999.0,97,-99.99,,,3.50,Acu-Link.com,2013-08-23 03:34:00,
2013-08-22 23:49:00,74.1,73.5,29.90,ESE,112,0.0,-999.0,98,-99.99,,,3.50,Acu-Link.com,2013-08-23 03:49:00,